Time;durP1;ratioP1;P1;durP2;ratioP2;P2;SDS_P1;SDS_P2;PMS_P1;PMS_P2;Temp;Humidity;BMP_temperature;BMP_pressure;BME280_temperature;BME280_humidity;BME280_pressure;Samples;Min_cycle;Max_cycle;Signal;HPM_P1;HPM_P2
2021/10/02 00:31:31;;;;;;;;;;;;;;;-142.75;100.00;76755.34;5064137;28;19961;-78
2021/10/02 00:44:39;;;;;;;;;;;;;;;-142.75;100.00;76729.75;5071852;28;20011;-79
2021/10/02 00:47:05;;;;;;;;;;;;;;;-142.75;100.00;76725.81;5067975;28;19916;-79
2021/10/02 00:49:31;;;;;;;;;;;;;;;-142.75;100.00;76721.88;5062359;28;19921;-78
2021/10/02 00:51:56;;;;;;;;;;;;;;;-142.75;100.00;76727.78;5071766;28;20404;-78
2021/10/02 00:54:21;;;;;;;;;;;;;;;-142.75;100.00;76723.84;5069877;28;20289;-78
2021/10/02 00:56:47;;;;;;;;;;;;;;;-142.75;100.00;76727.78;5070105;28;20381;-78
2021/10/02 00:59:12;;;;;;;;;;;;;;;-142.75;100.00;76725.81;5051381;28;19966;-78
2021/10/02 01:01:43;;;;;;;;;;;;;;;-142.75;100.00;76727.78;5050536;28;19916;-79
2021/10/02 01:04:27;;;;;;;;;;;;;;;-142.75;100.00;76729.75;5059979;28;19924;-77
2021/10/02 01:07:02;;;;;;;;;;;;;;;-142.75;100.00;76727.78;5050674;28;19966;-78
2021/10/02 01:09:35;;;;;;;;;;;;;;;-142.75;100.00;76727.78;5053787;28;19916;-77
2021/10/02 01:12:00;;;;;;;;;;;;;;;-142.75;100.00;76712.03;5060713;28;20413;-77
2021/10/02 01:14:36;;;;;;;;;;;;;;;-142.75;100.00;76717.94;5051382;28;19951;-78
2021/10/02 01:17:05;;;;;;;;;;;;;;;-142.75;100.00;76719.91;5070331;28;20374;-77
2021/10/02 01:19:49;;;;;;;;;;;;;;;-142.75;100.00;76725.81;5069539;28;20011;-79
2021/10/02 01:22:29;;;;;;;;;;;;;;;-142.75;100.00;76727.78;5064005;28;19917;-78
2021/10/02 01:25:06;;;;;;;;;;;;;;;-142.75;100.00;76729.75;5050488;28;20019;-79
2021/10/02 01:27:49;;;;;;;;;;;;;;;-142.75;100.00;76735.66;5061999;28;19917;-79
2021/10/02 01:33:11;;;;;;;;;;;;;;;-142.75;100.00;76765.19;5044626;28;19916;-76
2021/10/02 01:35:47;;;;;;;;;;;;;;;-142.75;100.00;76767.16;5053945;28;19921;-78
2021/10/02 01:47:09;;;;;;;;;;;;;;;-142.75;100.00;76775.03;5062482;28;19924;-78
2021/10/02 01:49:21;;;;;;;;;;;;;;;-142.75;100.00;76755.34;5061355;28;19987;-79
2021/10/02 01:51:47;;;;;;;;;;;;;;;-142.75;100.00;76767.16;5062456;28;19966;-79
2021/10/02 01:54:13;;;;;;;;;;;;;;;-142.75;100.00;76767.16;5058797;28;19916;-80
2021/10/02 01:56:39;;;;;;;;;;;;;;;-142.75;100.00;76786.84;5053587;28;19917;-78
2021/10/02 01:59:05;;;;;;;;;;;;;;;-142.75;100.00;76788.81;5057342;28;19925;-79
2021/10/02 02:01:30;;;;;;;;;;;;;;;-142.75;100.00;76782.91;5064400;28;20458;-77
2021/10/02 02:03:56;;;;;;;;;;;;;;;-142.75;100.00;76778.97;5065745;28;19958;-77
2021/10/02 02:06:26;;;;;;;;;;;;;;;-142.75;100.00;76784.88;5059348;28;19917;-79
2021/10/02 02:08:52;;;;;;;;;;;;;;;-142.75;100.00;76780.94;5054629;28;20390;-79
2021/10/02 02:11:17;;;;;;;;;;;;;;;-142.75;100.00;76778.97;5055132;28;19947;-80
2021/10/02 02:13:43;;;;;;;;;;;;;;;-142.75;100.00;76786.84;5053818;28;19916;-79
2021/10/02 02:16:08;;;;;;;;;;;;;;;-142.75;100.00;76796.69;5065771;28;20015;-78
2021/10/02 02:18:34;;;;;;;;;;;;;;;-142.75;100.00;76802.56;5064536;28;19924;-79
2021/10/02 02:21:01;;;;;;;;;;;;;;;-142.75;100.00;76804.53;5064877;28;20020;-77
2021/10/02 02:23:27;;;;;;;;;;;;;;;-142.75;100.00;76814.38;5064635;28;20023;-78
2021/10/02 02:25:54;;;;;;;;;;;;;;;-142.75;100.00;76828.16;5065277;28;19975;-78
2021/10/02 02:28:21;;;;;;;;;;;;;;;-142.75;100.00;76822.25;5063380;28;19982;-78
2021/10/02 02:30:46;;;;;;;;;;;;;;;-142.75;100.00;76826.19;5067492;28;20419;-78
2021/10/02 02:33:14;;;;;;;;;;;;;;;-142.75;100.00;76818.31;5060430;28;20019;-79
2021/10/02 02:35:39;;;;;;;;;;;;;;;-142.75;100.00;76806.50;5059065;28;20304;-79
2021/10/02 02:38:04;;;;;;;;;;;;;;;-142.75;100.00;76810.44;5062807;28;19916;-80
2021/10/02 02:40:30;;;;;;;;;;;;;;;-142.75;100.00;76814.38;5065932;28;19927;-78
2021/10/02 02:42:56;;;;;;;;;;;;;;;-142.75;100.00;76818.31;5057732;28;19923;-80
2021/10/02 02:45:22;;;;;;;;;;;;;;;-142.75;100.00;76806.50;5061304;28;19943;-79
2021/10/02 02:47:49;;;;;;;;;;;;;;;-142.75;100.00;76812.41;5060260;28;19917;-79
2021/10/02 02:50:26;;;;;;;;;;;;;;;-142.75;100.00;76816.34;5069594;28;20443;-78
2021/10/02 02:52:51;;;;;;;;;;;;;;;-142.75;100.00;76822.25;5087586;28;19928;-78
2021/10/02 02:55:20;;;;;;;;;;;;;;;-142.75;100.00;76822.25;5062153;28;19923;-78
2021/10/02 02:57:51;;;;;;;;;;;;;;;-142.75;100.00;76814.38;5061259;28;19920;-78
2021/10/02 03:00:18;;;;;;;;;;;;;;;-142.75;100.00;76826.19;5056643;28;19932;-80
2021/10/02 03:02:50;;;;;;;;;;;;;;;-142.75;100.00;76826.19;5066609;28;19917;-77
2021/10/02 03:05:16;;;;;;;;;;;;;;;-142.75;100.00;76816.34;5066908;28;19916;-78
2021/10/02 03:07:47;;;;;;;;;;;;;;;-142.75;100.00;76814.38;5066577;28;19967;-78
2021/10/02 03:10:13;;;;;;;;;;;;;;;-142.75;100.00;76822.25;5062394;28;19916;-79
2021/10/02 03:12:41;;;;;;;;;;;;;;;-142.75;100.00;76812.41;5057881;28;19923;-79
2021/10/02 03:15:06;;;;;;;;;;;;;;;-142.75;100.00;76818.31;5059110;28;19921;-78
2021/10/02 03:17:32;;;;;;;;;;;;;;;-142.75;100.00;76822.25;5065099;28;19923;-78
2021/10/02 03:19:59;;;;;;;;;;;;;;;-142.75;100.00;76822.25;5059947;28;19927;-78
2021/10/02 03:22:26;;;;;;;;;;;;;;;-142.75;100.00;76826.19;5059095;28;19959;-77
2021/10/02 03:24:51;;;;;;;;;;;;;;;-142.75;100.00;76826.19;5057662;28;19920;-77
2021/10/02 03:27:17;;;;;;;;;;;;;;;-142.75;100.00;76839.97;5059381;28;20051;-78
2021/10/02 03:29:44;;;;;;;;;;;;;;;-142.75;100.00;76830.13;5057788;28;19923;-80
2021/10/02 03:32:09;;;;;;;;;;;;;;;-142.75;100.00;76824.22;5061829;28;19943;-79
2021/10/02 03:34:35;;;;;;;;;;;;;;;-142.75;100.00;76824.22;5062525;28;20339;-77
2021/10/02 03:37:00;;;;;;;;;;;;;;;-142.75;100.00;76838.00;5063790;28;19916;-79
2021/10/02 03:39:26;;;;;;;;;;;;;;;-142.75;100.00;76851.78;5060664;28;19927;-78
2021/10/02 03:42:11;;;;;;;;;;;;;;;-142.75;100.00;76843.91;5057904;28;20384;-78
2021/10/02 03:44:39;;;;;;;;;;;;;;;-142.75;100.00;76843.91;5066088;28;19956;-79
2021/10/02 03:47:04;;;;;;;;;;;;;;;-142.75;100.00;76847.84;5065319;28;20305;-79
2021/10/02 03:49:29;;;;;;;;;;;;;;;-142.75;100.00;76851.78;5067668;28;19917;-79
2021/10/02 03:51:54;;;;;;;;;;;;;;;-142.75;100.00;76855.72;5065798;28;20019;-80
2021/10/02 03:54:20;;;;;;;;;;;;;;;-142.75;100.00;76861.63;5054575;28;19928;-79
2021/10/02 03:56:45;;;;;;;;;;;;;;;-142.75;100.00;76857.69;5056174;28;19916;-80
2021/10/02 03:59:10;;;;;;;;;;;;;;;-142.75;100.00;76861.63;5057549;28;19917;-79
2021/10/02 04:01:35;;;;;;;;;;;;;;;-142.75;100.00;76871.47;5066872;28;19924;-78
2021/10/02 04:04:00;;;;;;;;;;;;;;;-142.75;100.00;76877.38;5060582;28;20018;-77
2021/10/02 04:06:26;;;;;;;;;;;;;;;-142.75;100.00;76875.41;5065832;28;19924;-77
2021/10/02 04:08:51;;;;;;;;;;;;;;;-142.75;100.00;76883.28;5064106;28;19917;-78
2021/10/02 04:11:16;;;;;;;;;;;;;;;-142.75;100.00;76889.19;5061801;28;19944;-79
2021/10/02 04:13:41;;;;;;;;;;;;;;;-142.75;100.00;76885.25;5063166;28;19924;-78
2021/10/02 04:16:06;;;;;;;;;;;;;;;-142.75;100.00;76893.13;5059828;28;19924;-77
2021/10/02 04:18:32;;;;;;;;;;;;;;;-142.75;100.00;76885.25;5054029;28;19917;-77
2021/10/02 04:20:57;;;;;;;;;;;;;;;-142.75;100.00;76883.28;5062816;28;19924;-77
2021/10/02 04:23:22;;;;;;;;;;;;;;;-142.75;100.00;76883.28;5062119;28;19923;-80
2021/10/02 04:25:47;;;;;;;;;;;;;;;-142.75;100.00;76879.34;5059968;28;20428;-79
2021/10/02 04:28:13;;;;;;;;;;;;;;;-142.75;100.00;76867.53;5108083;22;19924;-81
2021/10/02 04:30:38;;;;;;;;;;;;;;;-142.75;100.00;76859.66;5087104;28;19920;-82
2021/10/02 04:33:03;;;;;;;;;;;;;;;-142.75;100.00;76865.56;5079322;28;19923;-80
2021/10/02 04:35:28;;;;;;;;;;;;;;;-142.75;100.00;76869.50;5080788;28;20323;-81
2021/10/02 04:37:53;;;;;;;;;;;;;;;-142.75;100.00;76873.44;5090821;28;20590;-81
2021/10/02 04:40:19;;;;;;;;;;;;;;;-142.75;100.00;76873.44;5080589;28;20325;-81
2021/10/02 04:42:44;;;;;;;;;;;;;;;-142.75;100.00;76877.38;5091473;28;19969;-82
2021/10/02 04:45:09;;;;;;;;;;;;;;;-142.75;100.00;76863.59;5072026;28;20003;-82
2021/10/02 04:47:34;;;;;;;;;;;;;;;-142.75;100.00;76857.69;5082264;28;19923;-82
2021/10/02 04:49:59;;;;;;;;;;;;;;;-142.75;100.00;76861.63;5090225;28;19920;-81
2021/10/02 04:52:25;;;;;;;;;;;;;;;-142.75;100.00;76871.47;5064319;28;19916;-81
2021/10/02 04:54:50;;;;;;;;;;;;;;;-142.75;100.00;76863.59;5068999;28;19922;-81
2021/10/02 04:57:15;;;;;;;;;;;;;;;-142.75;100.00;76873.44;5092962;28;19920;-82
2021/10/02 04:59:40;;;;;;;;;;;;;;;-142.75;100.00;76881.31;5094422;28;19916;-81
2021/10/02 05:02:05;;;;;;;;;;;;;;;-142.75;100.00;76881.31;5075547;28;19951;-83
2021/10/02 05:04:31;;;;;;;;;;;;;;;-142.75;100.00;76881.31;5067266;28;19951;-83
2021/10/02 05:06:56;;;;;;;;;;;;;;;-142.75;100.00;76877.38;5085125;28;19985;-81
2021/10/02 05:09:21;;;;;;;;;;;;;;;-142.75;100.00;76869.50;5082594;28;19916;-83
2021/10/02 05:11:46;;;;;;;;;;;;;;;-142.75;100.00;76869.50;5079104;28;19916;-83
2021/10/02 05:14:11;;;;;;;;;;;;;;;-142.75;100.00;76877.38;5086845;28;19924;-83
2021/10/02 05:16:37;;;;;;;;;;;;;;;-142.75;100.00;76881.31;5093366;28;19916;-84
2021/10/02 05:19:02;;;;;;;;;;;;;;;-142.75;100.00;76881.31;5066198;28;19921;-82
2021/10/02 05:21:27;;;;;;;;;;;;;;;-142.75;100.00;76883.28;5082883;28;20008;-82
2021/10/02 05:23:52;;;;;;;;;;;;;;;-142.75;100.00;76891.16;5081735;28;19916;-82
2021/10/02 05:26:17;;;;;;;;;;;;;;;-142.75;100.00;76891.16;5063362;28;20007;-83
2021/10/02 05:28:42;;;;;;;;;;;;;;;-142.75;100.00;76893.13;5081738;28;19969;-83
2021/10/02 05:31:08;;;;;;;;;;;;;;;-142.75;100.00;76897.06;5086837;28;19916;-80
2021/10/02 05:33:33;;;;;;;;;;;;;;;-142.75;100.00;76901.00;5057969;28;20312;-84
2021/10/02 05:35:58;;;;;;;;;;;;;;;-142.75;100.00;76904.94;5078544;28;19926;-82
2021/10/02 05:38:23;;;;;;;;;;;;;;;-142.75;100.00;76893.13;5070210;28;20281;-83
2021/10/02 05:40:49;;;;;;;;;;;;;;;-142.75;100.00;76889.19;5088496;28;19927;-82
2021/10/02 05:43:14;;;;;;;;;;;;;;;-142.75;100.00;76893.13;5060137;28;19952;-83
2021/10/02 05:45:39;;;;;;;;;;;;;;;-142.75;100.00;76901.00;5090690;28;19961;-83
2021/10/02 05:48:04;;;;;;;;;;;;;;;-142.75;100.00;76893.13;5083340;28;20465;-82
2021/10/02 05:50:29;;;;;;;;;;;;;;;-142.75;100.00;76893.13;5087968;28;19923;-83
2021/10/02 05:52:55;;;;;;;;;;;;;;;-142.75;100.00;76901.00;5068717;28;19917;-82
2021/10/02 05:55:20;;;;;;;;;;;;;;;-142.75;100.00;76901.00;5079077;28;19923;-82
2021/10/02 05:57:45;;;;;;;;;;;;;;;-142.75;100.00;76902.97;5086004;28;19960;-81
2021/10/02 06:00:10;;;;;;;;;;;;;;;-142.75;100.00;76891.16;5065106;28;20389;-81
2021/10/02 06:02:36;;;;;;;;;;;;;;;-142.75;100.00;76904.94;5060130;28;19917;-84
2021/10/02 06:05:01;;;;;;;;;;;;;;;-142.75;100.00;76912.81;5063308;28;20005;-84
2021/10/02 06:07:26;;;;;;;;;;;;;;;-142.75;100.00;76906.91;5076967;28;19924;-82
2021/10/02 06:09:51;;;;;;;;;;;;;;;-142.75;100.00;76901.00;5073587;28;20293;-83
2021/10/02 06:12:17;;;;;;;;;;;;;;;-142.75;100.00;76906.91;5061521;28;19942;-83
2021/10/02 06:14:42;;;;;;;;;;;;;;;-142.75;100.00;76901.00;5063547;28;19956;-84
2021/10/02 06:17:07;;;;;;;;;;;;;;;-142.75;100.00;76893.13;5063377;28;19917;-80
2021/10/02 06:19:33;;;;;;;;;;;;;;;-142.75;100.00;76895.09;5089593;28;20604;-82
2021/10/02 06:21:59;;;;;;;;;;;;;;;-142.75;100.00;76887.22;5078919;28;19929;-82
2021/10/02 06:24:25;;;;;;;;;;;;;;;-142.75;100.00;76902.97;5064765;28;19977;-81
2021/10/02 06:26:50;;;;;;;;;;;;;;;-142.75;100.00;76885.25;5064714;28;20373;-82
2021/10/02 06:29:15;;;;;;;;;;;;;;;-142.75;100.00;76867.53;5070156;28;19916;-81
2021/10/02 06:31:41;;;;;;;;;;;;;;;-142.75;100.00;76867.53;5066005;28;19923;-82
2021/10/02 06:34:06;;;;;;;;;;;;;;;-142.75;100.00;76895.09;5085636;28;19924;-82
2021/10/02 06:36:32;;;;;;;;;;;;;;;-142.75;100.00;76853.75;5061834;28;20349;-81
2021/10/02 06:38:59;;;;;;;;;;;;;;;-142.75;100.00;76838.00;5064816;28;19920;-81
2021/10/02 06:41:25;;;;;;;;;;;;;;;-142.75;100.00;76808.50;5065268;28;20344;-84
2021/10/02 06:43:50;;;;;;;;;;;;;;;-142.75;100.00;76763.22;5060646;28;19916;-83
2021/10/02 06:46:15;;;;;;;;;;;;;;;-142.75;100.00;76721.88;5085612;28;19939;-83
2021/10/02 06:48:41;;;;;;;;;;;;;;;-142.75;100.00;76680.53;5082018;28;19917;-82
2021/10/02 06:51:06;;;;;;;;;;;;;;;-142.75;100.00;76682.50;5065650;28;20003;-82
2021/10/02 06:53:32;;;;;;;;;;;;;;;-142.75;100.00;76654.94;5083157;28;20005;-81
2021/10/02 06:55:57;;;;;;;;;;;;;;;-142.75;100.00;76641.16;5085132;28;20021;-82
2021/10/02 06:58:22;;;;;;;;;;;;;;;-142.75;100.00;76660.84;5069603;28;19928;-80
2021/10/02 07:00:47;;;;;;;;;;;;;;;-142.75;100.00;76662.81;5064800;28;20523;-81
2021/10/02 07:03:13;;;;;;;;;;;;;;;-142.75;100.00;76704.16;5060018;28;19916;-83
2021/10/02 07:05:38;;;;;;;;;;;;;;;-142.75;100.00;76666.75;5069903;28;19977;-81
2021/10/02 07:08:04;;;;;;;;;;;;;;;-142.75;100.00;76666.75;5080354;28;19917;-82
2021/10/02 07:10:29;;;;;;;;;;;;;;;-142.75;100.00;76684.47;5084245;28;19920;-82
2021/10/02 07:12:55;;;;;;;;;;;;;;;-142.75;100.00;76694.31;5067546;28;20476;-83
2021/10/02 07:15:20;;;;;;;;;;;;;;;-142.75;100.00;76714.00;5070207;28;19938;-82
2021/10/02 07:17:45;;;;;;;;;;;;;;;-142.75;100.00;76668.72;5089034;28;19921;-83
2021/10/02 07:20:11;;;;;;;;;;;;;;;-142.75;100.00;76680.53;5074640;28;20056;-81
2021/10/02 07:22:40;;;;;;;;;;;;;;;-142.75;100.00;76627.38;5065229;28;19920;-80
2021/10/02 07:25:06;;;;;;;;;;;;;;;-142.75;100.00;76568.31;5090945;28;20011;-83
2021/10/02 07:27:31;;;;;;;;;;;;;;;-142.75;100.00;76544.69;5081431;28;19923;-81
2021/10/02 07:29:57;;;;;;;;;;;;;;;-142.75;100.00;76550.59;5063076;28;19919;-80
2021/10/02 07:32:23;;;;;;;;;;;;;;;-142.75;100.00;76534.84;5067042;28;19925;-82
2021/10/02 07:34:49;;;;;;;;;;;;;;;-142.75;100.00;76523.06;5061457;28;19916;-83
2021/10/02 07:37:14;;;;;;;;;;;;;;;-142.75;99.81;76536.84;5065429;28;19936;-81
2021/10/02 07:39:39;;;;;;;;;;;;;;;-142.75;99.83;76538.78;5063129;28;20010;-80
2021/10/02 07:42:05;;;;;;;;;;;;;;;-142.75;99.68;76570.28;5088695;28;19923;-83
2021/10/02 07:44:30;;;;;;;;;;;;;;;-142.75;100.00;76562.41;5062868;28;20030;-83
2021/10/02 07:46:56;;;;;;;;;;;;;;;-142.75;99.95;76560.44;5089686;28;20011;-82
2021/10/02 07:49:22;;;;;;;;;;;;;;;-142.75;100.00;76578.16;5083358;28;20261;-80
2021/10/02 07:51:47;;;;;;;;;;;;;;;-142.75;100.00;76576.19;5070850;28;20007;-82
2021/10/02 07:54:13;;;;;;;;;;;;;;;-142.75;100.00;76578.16;5067748;28;19916;-81
2021/10/02 07:56:39;;;;;;;;;;;;;;;-142.75;100.00;76574.22;5086526;28;19920;-82
2021/10/02 07:59:07;;;;;;;;;;;;;;;-142.75;100.00;76566.34;5084619;28;20381;-82
2021/10/02 08:01:33;;;;;;;;;;;;;;;-142.75;99.72;76542.72;5087582;28;19999;-82
2021/10/02 08:04:01;;;;;;;;;;;;;;;-142.75;99.37;76527.00;5078405;28;20401;-82
2021/10/02 08:06:27;;;;;;;;;;;;;;;-142.75;100.00;76540.75;5082690;28;19917;-80
2021/10/02 08:08:52;;;;;;;;;;;;;;;-142.75;98.22;76532.88;5076405;28;19923;-81
2021/10/02 08:11:17;;;;;;;;;;;;;;;-142.75;96.70;76534.84;5089675;28;19920;-82
2021/10/02 08:13:42;;;;;;;;;;;;;;;-142.75;99.18;76509.28;5085057;28;20385;-82
2021/10/02 08:16:09;;;;;;;;;;;;;;;-142.75;96.79;76517.16;5086445;28;19916;-82
2021/10/02 08:18:38;;;;;;;;;;;;;;;-142.75;94.52;76456.13;5080359;28;20386;-82
2021/10/02 08:21:04;;;;;;;;;;;;;;;-142.75;93.82;76393.13;5085033;28;19943;-80
2021/10/02 08:23:33;;;;;;;;;;;;;;;-142.75;92.46;76373.44;5079671;28;19920;-79
2021/10/02 08:25:58;;;;;;;;;;;;;;;-142.75;88.04;76387.22;5084554;28;19986;-80
2021/10/02 08:28:24;;;;;;;;;;;;;;;-142.75;86.99;76298.66;5089387;28;20003;-81
2021/10/02 08:30:50;;;;;;;;;;;;;;;-142.75;80.79;76219.91;5090119;28;19920;-78
2021/10/02 08:33:16;;;;;;;;;;;;;;;-142.75;80.73;76166.78;5069720;28;19920;-82
2021/10/02 08:35:41;;;;;;;;;;;;;;;-142.75;77.12;76149.06;5073614;28;19928;-82
2021/10/02 08:38:06;;;;;;;;;;;;;;;-142.75;73.55;76078.19;5071236;28;20011;-80
2021/10/02 08:40:32;;;;;;;;;;;;;;;-142.75;76.52;75948.31;5069355;28;19973;-81
2021/10/02 08:42:58;;;;;;;;;;;;;;;-142.75;70.53;75798.72;5063436;28;20408;-79
2021/10/02 08:45:26;;;;;;;;;;;;;;;-142.75;63.85;75716.06;5082758;28;20308;-80
2021/10/02 08:47:52;;;;;;;;;;;;;;;-142.75;61.25;75643.25;5068741;28;19924;-80
2021/10/02 08:50:18;;;;;;;;;;;;;;;-142.75;61.71;75905.00;5074227;28;20006;-81
2021/10/02 08:52:44;;;;;;;;;;;;;;;-142.75;65.09;75859.72;5071463;28;19960;-82
2021/10/02 08:55:11;;;;;;;;;;;;;;;-142.75;63.92;75784.94;5090109;28;19924;-81
2021/10/02 08:57:36;;;;;;;;;;;;;;;-142.75;64.33;75790.84;5059835;28;19928;-80
2021/10/02 09:00:10;;;;;;;;;;;;;;;-142.75;65.50;76054.59;5086050;28;19920;-82
2021/10/02 09:02:35;;;;;;;;;;;;;;;-142.75;67.80;75985.69;5071434;28;19916;-79
2021/10/02 09:05:00;;;;;;;;;;;;;;;-142.75;67.26;75891.22;5062040;28;19925;-79
2021/10/02 09:07:26;;;;;;;;;;;;;;;-142.75;64.96;75694.41;5084898;28;19916;-82
2021/10/02 09:09:54;;;;;;;;;;;;;;;-142.75;62.52;75623.56;5068171;28;19920;-82
2021/10/02 09:12:21;;;;;;;;;;;;;;;-142.75;63.72;75948.31;5081760;28;20359;-80
2021/10/02 09:14:46;;;;;;;;;;;;;;;-142.75;68.61;76101.81;5078374;28;19917;-80
2021/10/02 09:17:11;;;;;;;;;;;;;;;-142.75;68.79;75985.69;5074924;28;20015;-82
2021/10/02 09:19:37;;;;;;;;;;;;;;;-142.75;71.90;76194.34;5085565;28;19920;-79
2021/10/02 09:22:04;;;;;;;;;;;;;;;-142.75;71.49;76034.91;5071599;28;19972;-81
2021/10/02 09:24:34;;;;;;;;;;;;;;;-142.75;73.09;76170.72;5086975;28;19924;-80
2021/10/02 09:26:59;;;;;;;;;;;;;;;-142.75;75.80;76064.44;5083084;28;20397;-80
2021/10/02 09:29:35;;;;;;;;;;;;;;;-142.75;72.11;76042.78;5066868;28;19941;-81
2021/10/02 09:32:01;;;;;;;;;;;;;;;-142.75;73.96;76034.91;5067668;28;19991;-79
2021/10/02 09:34:26;;;;;;;;;;;;;;;-142.75;74.29;75987.66;5059825;28;19924;-79
2021/10/02 09:36:51;;;;;;;;;;;;;;;-142.75;73.83;75975.84;5072354;28;19916;-81
2021/10/02 09:39:17;;;;;;;;;;;;;;;-142.75;74.80;75928.63;5092324;28;19927;-79
2021/10/02 09:41:50;;;;;;;;;;;;;;;-142.75;72.01;75920.75;5072612;28;19923;-79
2021/10/02 09:44:23;;;;;;;;;;;;;;;-142.75;71.53;75960.13;5085549;28;20007;-80
2021/10/02 09:46:48;;;;;;;;;;;;;;;-142.75;71.54;75946.34;5067610;28;19926;-79
2021/10/02 09:49:13;;;;;;;;;;;;;;;-142.75;72.49;75932.56;5077069;28;19917;-80
2021/10/02 09:51:40;;;;;;;;;;;;;;;-142.75;76.67;76082.13;5073458;28;19971;-80
2021/10/02 09:54:05;;;;;;;;;;;;;;;-142.75;75.39;76030.97;5073260;28;19917;-79
2021/10/02 09:56:31;;;;;;;;;;;;;;;-142.75;76.58;76058.53;5083329;28;19920;-79
2021/10/02 09:58:58;;;;;;;;;;;;;;;-142.75;75.50;76113.63;5075023;28;19994;-79
2021/10/02 10:01:25;;;;;;;;;;;;;;;-142.75;78.50;76090.00;5091512;28;20330;-81
2021/10/02 10:03:50;;;;;;;;;;;;;;;-142.75;77.12;76013.25;5087386;28;20290;-80
2021/10/02 10:06:20;;;;;;;;;;;;;;;-142.75;76.60;75952.25;5072098;28;19923;-80
2021/10/02 10:09:01;;;;;;;;;;;;;;;-142.75;74.66;75932.56;5054393;28;20007;-79
2021/10/02 10:11:38;;;;;;;;;;;;;;;-142.75;75.44;75985.69;5069853;28;19996;-81
2021/10/02 10:14:03;;;;;;;;;;;;;;;-142.75;75.10;75960.13;5072179;28;19946;-80
2021/10/02 10:16:36;;;;;;;;;;;;;;;-142.75;74.63;75952.25;5074493;28;20417;-79
2021/10/02 10:19:15;;;;;;;;;;;;;;;-142.75;76.62;76003.41;5074224;28;19920;-80
2021/10/02 10:21:40;;;;;;;;;;;;;;;-142.75;78.76;76066.41;5092909;28;19916;-80
2021/10/02 10:24:06;;;;;;;;;;;;;;;-142.75;79.76;76154.97;5081265;28;20392;-79
2021/10/02 10:26:31;;;;;;;;;;;;;;;-142.75;81.67;76103.78;5089745;28;19916;-79
2021/10/02 10:29:01;;;;;;;;;;;;;;;-142.75;80.70;76097.88;5069014;28;20382;-79
2021/10/02 10:31:26;;;;;;;;;;;;;;;-142.75;78.78;76070.34;5059382;28;20015;-79
2021/10/02 10:33:56;;;;;;;;;;;;;;;-142.75;79.83;76127.41;5057788;28;19956;-80
2021/10/02 10:36:23;;;;;;;;;;;;;;;-142.75;81.51;76137.25;5060223;28;19920;-80
2021/10/02 10:38:49;;;;;;;;;;;;;;;-142.75;83.34;76141.19;5062783;28;20018;-79
2021/10/02 10:41:16;;;;;;;;;;;;;;;-142.75;86.26;76219.91;5064170;28;19931;-79
2021/10/02 10:43:41;;;;;;;;;;;;;;;-142.75;88.37;76210.06;5088230;28;19923;-79
2021/10/02 10:46:08;;;;;;;;;;;;;;;-142.75;88.63;76229.75;5086603;28;19916;-81
2021/10/02 10:48:34;;;;;;;;;;;;;;;-142.75;87.50;76243.53;5080239;28;19920;-79
2021/10/02 10:51:01;;;;;;;;;;;;;;;-142.75;87.27;76200.25;5091866;28;19947;-79
2021/10/02 10:53:33;;;;;;;;;;;;;;;-142.75;86.96;76192.38;5083333;28;19921;-80
2021/10/02 10:55:58;;;;;;;;;;;;;;;-142.75;86.77;76180.56;5088748;28;19923;-79
2021/10/02 10:58:25;;;;;;;;;;;;;;;-142.75;85.73;76141.19;5080205;28;20313;-79
2021/10/02 11:00:50;;;;;;;;;;;;;;;-142.75;87.63;76200.25;5086380;28;19916;-79
2021/10/02 11:03:33;;;;;;;;;;;;;;;-142.75;85.98;76129.38;5078292;28;19931;-79
2021/10/02 11:05:58;;;;;;;;;;;;;;;-142.75;83.83;76127.41;5077218;28;19916;-80
2021/10/02 11:08:43;;;;;;;;;;;;;;;-142.75;82.45;76066.41;5064913;28;20288;-79
2021/10/02 11:11:09;;;;;;;;;;;;;;;-142.75;82.12;76080.16;5064573;28;19924;-80
2021/10/02 11:13:34;;;;;;;;;;;;;;;-142.75;82.17;76064.44;5088486;28;20435;-80
2021/10/02 11:16:19;;;;;;;;;;;;;;;-142.75;84.05;76093.94;5081520;28;19920;-79
2021/10/02 11:18:47;;;;;;;;;;;;;;;-142.75;83.96;76052.63;5064443;28;19927;-79
2021/10/02 11:21:14;;;;;;;;;;;;;;;-142.75;81.22;76009.31;5076818;28;19924;-80
2021/10/02 11:23:39;;;;;;;;;;;;;;;-142.75;80.42;76011.28;5060952;28;19920;-78
2021/10/02 11:26:11;;;;;;;;;;;;;;;-142.75;81.98;76054.59;5064846;28;19924;-80
2021/10/02 11:28:36;;;;;;;;;;;;;;;-142.75;85.35;76078.19;5083665;28;19924;-80
2021/10/02 11:31:10;;;;;;;;;;;;;;;-142.75;85.91;76137.25;5087410;28;20056;-80
2021/10/02 11:33:46;;;;;;;;;;;;;;;-142.75;86.50;76125.44;5072616;28;20392;-79
2021/10/02 11:36:35;;;;;;;;;;;;;;;-142.75;87.04;76133.31;5096050;22;19924;-76
2021/10/02 11:39:22;;;;;;;;;;;;;;;-142.75;86.78;76074.25;5062183;28;20052;-78
2021/10/02 11:41:49;;;;;;;;;;;;;;;-142.75;84.52;76021.13;5093238;28;19916;-77
2021/10/02 11:44:37;;;;;;;;;;;;;;;-142.75;83.92;76005.38;5091988;28;20006;-76
2021/10/02 11:47:20;;;;;;;;;;;;;;;-142.75;84.35;76082.13;5057976;28;20070;-78
2021/10/02 11:50:05;;;;;;;;;;;;;;;-142.75;84.92;76030.97;5041601;28;19917;-77
2021/10/02 11:52:31;;;;;;;;;;;;;;;-142.75;83.57;76027.03;5068988;28;20335;-77
2021/10/02 11:54:56;;;;;;;;;;;;;;;-142.75;82.12;76019.16;5065920;28;19916;-78
2021/10/02 11:57:21;;;;;;;;;;;;;;;-142.75;82.60;76044.75;5052930;28;19917;-77
2021/10/02 11:59:46;;;;;;;;;;;;;;;-142.75;83.20;76009.31;5037001;28;19924;-77
2021/10/02 12:02:13;;;;;;;;;;;;;;;-142.75;81.67;75979.78;5045374;28;20015;-78
2021/10/02 12:04:38;;;;;;;;;;;;;;;-142.75;81.64;76021.13;5053376;28;20008;-77
2021/10/02 12:07:04;;;;;;;;;;;;;;;-142.75;83.09;76011.28;5060798;28;19960;-77
2021/10/02 12:09:30;;;;;;;;;;;;;;;-142.75;83.22;75999.47;5072144;28;19989;-76
2021/10/02 12:11:55;;;;;;;;;;;;;;;-142.75;83.30;75997.50;5037184;28;19921;-76
2021/10/02 12:14:21;;;;;;;;;;;;;;;-142.75;83.60;76019.16;5052975;28;19917;-77
2021/10/02 12:16:51;;;;;;;;;;;;;;;-142.75;86.05;76019.16;5053751;28;19924;-77
2021/10/02 12:19:20;;;;;;;;;;;;;;;-142.75;86.46;76023.09;5067719;28;19925;-77
2021/10/02 12:21:55;;;;;;;;;;;;;;;-142.75;87.36;75991.59;5070962;28;19947;-78
2021/10/02 12:24:21;;;;;;;;;;;;;;;-142.75;85.77;76007.34;5037807;28;19979;-78
2021/10/02 12:27:05;;;;;;;;;;;;;;;-142.75;87.16;75995.53;5042239;28;20394;-76
2021/10/02 12:29:36;;;;;;;;;;;;;;;-142.75;88.48;76036.88;5046165;28;19921;-76
2021/10/02 12:32:01;;;;;;;;;;;;;;;-142.75;93.16;76050.66;5059387;28;19917;-79
2021/10/02 12:34:26;;;;;;;;;;;;;;;-142.75;92.78;76046.72;5037621;28;19924;-78
2021/10/02 12:36:56;;;;;;;;;;;;;;;-142.75;92.61;76009.31;5052704;28;19940;-78
2021/10/02 12:39:27;;;;;;;;;;;;;;;-142.75;93.72;76013.25;5066148;28;19920;-77
2021/10/02 12:41:52;;;;;;;;;;;;;;;-142.75;96.61;76034.91;5054858;28;19916;-77
2021/10/02 12:44:28;;;;;;;;;;;;;;;-142.75;100.00;76048.69;5064011;28;19924;-77
2021/10/02 12:46:54;;;;;;;;;;;;;;;-142.75;100.00;76091.97;5034944;28;19916;-77
2021/10/02 12:49:20;;;;;;;;;;;;;;;-142.75;100.00;76105.75;5052668;28;19971;-77
2021/10/02 12:51:45;;;;;;;;;;;;;;;-142.75;100.00;76090.00;5052767;28;20402;-77
2021/10/02 12:54:11;;;;;;;;;;;;;;;-142.75;100.00;76109.69;5033984;28;20019;-78
2021/10/02 12:56:55;;;;;;;;;;;;;;;-142.75;100.00;76103.78;5048303;28;19924;-77
2021/10/02 12:59:21;;;;;;;;;;;;;;;-142.75;100.00;76074.25;5063431;28;19947;-78
2021/10/02 13:01:48;;;;;;;;;;;;;;;-142.75;100.00;76076.22;5032080;28;19921;-77
2021/10/02 13:04:14;;;;;;;;;;;;;;;-142.75;100.00;76054.59;5039920;28;19939;-78
2021/10/02 13:06:52;;;;;;;;;;;;;;;-142.75;100.00;76040.81;5032809;28;19916;-77
2021/10/02 13:09:17;;;;;;;;;;;;;;;-142.75;100.00;76029.00;5069789;28;19971;-78
2021/10/02 13:11:43;;;;;;;;;;;;;;;-142.75;100.00;76046.72;5053343;28;19921;-77
2021/10/02 13:14:08;;;;;;;;;;;;;;;-142.75;100.00;76003.41;5032554;28;19923;-78